Time;durP1;ratioP1;P1;durP2;ratioP2;P2;SDS_P1;SDS_P2;PMS_P1;PMS_P2;Temp;Humidity;BMP_temperature;BMP_pressure;BME280_temperature;BME280_humidity;BME280_pressure;Samples;Min_cycle;Max_cycle;Signal;HPM_P1;HPM_P2
2022/02/19 00:00:58;;;;;;;6.40;2.10;;;;;;;9.74;61.18;96640.30;106044;1277;23048;-76
2022/02/19 00:03:25;;;;;;;5.10;2.30;;;;;;;9.77;61.01;96642.32;106162;1277;136728;-76
2022/02/19 00:05:51;;;;;;;5.70;2.40;;;;;;;9.82;60.78;96642.19;106082;1277;22810;-76
2022/02/19 00:08:17;;;;;;;4.90;2.60;;;;;;;9.87;60.68;96639.31;105898;1277;136727;-76
2022/02/19 00:10:45;;;;;;;3.90;2.40;;;;;;;9.91;60.67;96653.58;105877;1277;25378;-76
2022/02/19 00:13:11;;;;;;;4.90;2.40;;;;;;;9.97;60.12;96650.21;106018;1280;22664;-76
2022/02/19 00:15:37;;;;;;;5.30;2.10;;;;;;;10.05;59.95;96669.50;105915;1278;137222;-76
2022/02/19 00:18:05;;;;;;;6.10;2.20;;;;;;;10.14;59.66;96673.13;106003;1277;22551;-76
2022/02/19 00:20:32;;;;;;;4.30;1.90;;;;;;;10.21;59.31;96667.66;105980;1277;137599;-76
2022/02/19 00:23:00;;;;;;;3.70;2.20;;;;;;;10.29;59.25;96694.52;105963;1277;22566;-76
2022/02/19 00:25:29;;;;;;;2.90;1.80;;;;;;;10.37;58.98;96706.02;105999;1277;24334;-76
2022/02/19 00:27:55;;;;;;;4.40;2.30;;;;;;;10.42;58.86;96704.34;106001;1276;137221;-76
2022/02/19 00:30:23;;;;;;;7.90;2.60;;;;;;;10.49;58.65;96691.59;105984;1277;22554;-76
2022/02/19 00:33:04;;;;;;;3.20;2.00;;;;;;;10.57;58.46;96707.41;106065;1276;137678;-76
2022/02/19 00:35:30;;;;;;;8.00;2.10;;;;;;;10.63;58.48;96719.64;105689;1278;22703;-77
2022/02/19 00:37:56;;;;;;;7.10;2.10;;;;;;;10.68;58.06;96741.73;105943;1277;22566;-77
2022/02/19 00:40:25;;;;;;;6.70;2.10;;;;;;;10.73;58.22;96744.36;106118;1277;137576;-76
2022/02/19 00:42:51;;;;;;;4.90;1.70;;;;;;;10.83;58.38;96763.37;105823;1277;22544;-76
2022/02/19 00:45:18;;;;;;;5.40;1.80;;;;;;;10.96;58.62;96754.75;106099;1277;137674;-76
2022/02/19 00:47:44;;;;;;;4.20;1.80;;;;;;;11.05;58.86;96769.20;106098;1277;24391;-76
2022/02/19 00:50:11;;;;;;;5.60;1.90;;;;;;;11.09;58.73;96761.08;105914;1277;137466;-76
2022/02/19 00:52:41;;;;;;;2.10;1.30;;;;;;;11.11;58.10;96781.27;106126;1278;22588;-76
2022/02/19 00:55:09;;;;;;;;;;;;;;;11.12;58.00;96786.38;106187;1277;22532;-76
2022/02/19 00:57:35;;;;;;;4.00;1.40;;;;;;;11.11;57.31;96782.09;106323;1277;124157;-75
2022/02/19 01:00:05;;;;;;;3.10;1.40;;;;;;;11.08;57.16;96793.77;106040;1277;22556;-75
2022/02/19 01:02:38;;;;;;;3.20;1.40;;;;;;;11.06;57.11;96806.98;106131;1277;137813;-75
2022/02/19 01:05:08;;;;;;;4.00;1.60;;;;;;;11.03;56.91;96808.76;106092;1278;24220;-75
2022/02/19 01:07:36;;;;;;;5.50;2.40;;;;;;;10.98;57.44;96806.35;106039;1277;24499;-75
2022/02/19 01:10:04;;;;;;;;;;;;;;;10.94;58.04;96802.09;106265;1277;137060;-76
2022/02/19 01:12:31;;;;;;;4.20;2.00;;;;;;;10.87;59.50;96798.73;106085;1277;22602;-77
2022/02/19 01:14:57;;;;;;;4.40;2.00;;;;;;;10.78;60.32;96809.88;105874;1277;137330;-76
2022/02/19 01:17:27;;;;;;;3.90;1.80;;;;;;;10.68;61.16;96829.02;105917;1277;22768;-78
2022/02/19 01:19:54;;;;;;;2.50;1.50;;;;;;;10.58;61.40;96838.09;106164;1280;23641;-77
2022/02/19 01:22:20;;;;;;;3.50;1.50;;;;;;;10.49;61.84;96838.43;105951;1278;136911;-76
2022/02/19 01:24:46;;;;;;;4.30;1.60;;;;;;;10.38;62.83;96862.73;106191;1277;22545;-76
2022/02/19 01:27:12;;;;;;;3.80;1.30;;;;;;;10.25;63.17;96860.20;105982;1277;137814;-76
2022/02/19 01:29:42;;;;;;;1.80;1.20;;;;;;;10.13;63.29;96868.91;106033;1277;24262;-76
2022/02/19 01:32:09;;;;;;;4.10;1.40;;;;;;;10.01;63.09;96872.58;105968;1277;137180;-76
2022/02/19 01:34:35;;;;;;;4.40;1.10;;;;;;;9.90;63.24;96881.93;105834;1277;22713;-76
2022/02/19 01:37:02;;;;;;;2.40;0.80;;;;;;;9.80;63.27;96875.13;105908;1277;22699;-76
2022/02/19 01:39:31;;;;;;;;;;;;;;;9.66;62.93;96852.80;105696;1278;137488;-76
2022/02/19 01:42:01;;;;;;;2.00;0.60;;;;;;;9.51;61.71;96851.11;105747;1278;22563;-78
2022/02/19 01:44:44;;;;;;;2.20;0.60;;;;;;;9.40;61.55;96868.60;105726;1277;137266;-77
2022/02/19 01:47:27;;;;;;;2.20;0.60;;;;;;;9.26;61.07;96891.39;105956;1277;22600;-76
2022/02/19 01:49:54;;;;;;;2.40;0.60;;;;;;;9.17;59.55;96875.94;106352;1277;25276;-78
2022/02/19 01:52:24;;;;;;;0.90;0.50;;;;;;;9.11;59.43;96877.08;106000;1277;136902;-75
2022/02/19 01:54:50;;;;;;;2.40;0.80;;;;;;;9.06;59.68;96872.75;106164;1277;24293;-74
2022/02/19 01:57:40;;;;;;;;;;;;;;;9.01;57.50;96853.10;105971;1277;137138;-76
2022/02/19 02:00:32;;;;;;;1.50;0.50;;;;;;;8.99;55.47;96857.61;105702;1278;30384;-75
2022/02/19 02:03:23;;;;;;;1.20;0.50;;;;;;;9.00;55.27;96865.59;105911;1277;137676;-79
2022/02/19 02:05:55;;;;;;;1.50;0.50;;;;;;;9.00;55.38;96874.28;106254;1277;22545;-76
2022/02/19 02:08:22;;;;;;;1.70;0.70;;;;;;;8.98;56.01;96880.42;106049;1277;137160;-75
2022/02/19 02:10:48;;;;;;;2.80;0.60;;;;;;;8.95;56.72;96887.97;106188;1277;22564;-76
2022/02/19 02:13:28;;;;;;;1.00;0.70;;;;;;;8.89;58.04;96888.19;106059;1280;23964;-75
2022/02/19 02:15:57;;;;;;;3.10;0.80;;;;;;;8.83;59.36;96896.50;106075;1277;137417;-75
2022/02/19 02:18:47;;;;;;;3.50;0.90;;;;;;;8.77;60.64;96892.11;106121;1277;25255;-76
2022/02/19 02:21:13;;;;;;;4.80;1.20;;;;;;;8.73;61.07;96892.98;106016;1277;136830;-75
2022/02/19 02:23:40;;;;;;;1.10;0.70;;;;;;;8.69;61.27;96897.32;105980;1277;24298;-78
2022/02/19 02:26:07;;;;;;;2.40;1.00;;;;;;;8.65;61.12;96902.75;105920;1277;136930;-75
2022/02/19 02:28:33;;;;;;;2.80;0.70;;;;;;;8.62;61.07;96897.05;106006;1277;23567;-75
2022/02/19 02:30:59;;;;;;;0.70;0.50;;;;;;;8.60;58.23;96907.14;106101;1277;22548;-75
2022/02/19 02:33:26;;;;;;;2.70;0.90;;;;;;;8.62;56.81;96918.91;106151;1277;136779;-75
2022/02/19 02:36:00;;;;;;;3.30;0.60;;;;;;;8.64;54.73;96919.41;105877;1277;24380;-75
2022/02/19 02:38:40;;;;;;;1.10;0.50;;;;;;;8.68;52.34;96919.35;106071;1277;137112;-75
2022/02/19 02:41:07;;;;;;;2.50;0.70;;;;;;;8.70;50.41;96929.56;105996;1277;25322;-75
2022/02/19 02:43:33;;;;;;;1.10;0.60;;;;;;;8.75;48.17;96936.67;105994;1277;24549;-75
2022/02/19 02:46:00;;;;;;;1.00;0.40;;;;;;;8.80;47.51;96940.21;106135;1277;136875;-76
2022/02/19 02:48:26;;;;;;;1.20;0.50;;;;;;;8.83;47.46;96946.13;106230;1277;22615;-76
2022/02/19 02:50:54;;;;;;;0.50;0.30;;;;;;;8.84;47.02;96939.99;105858;1277;137202;-75
2022/02/19 02:53:21;;;;;;;0.90;0.40;;;;;;;8.85;46.68;96949.66;106137;1277;22634;-75
2022/02/19 02:55:47;;;;;;;1.10;0.40;;;;;;;8.85;45.86;96950.31;106097;1277;25365;-75
2022/02/19 02:58:13;;;;;;;0.90;0.30;;;;;;;8.85;46.22;96949.45;105852;1277;137323;-75
2022/02/19 03:00:40;;;;;;;0.90;0.50;;;;;;;8.84;46.42;96963.88;106214;1277;25254;-75
2022/02/19 03:03:06;;;;;;;2.60;0.50;;;;;;;8.83;46.34;96966.04;106123;1277;136869;-75
2022/02/19 03:05:32;;;;;;;1.50;0.50;;;;;;;8.82;46.87;96972.28;106044;1277;22564;-75
2022/02/19 03:07:59;;;;;;;1.40;0.40;;;;;;;8.82;47.21;96971.96;105982;1277;24255;-75
2022/02/19 03:10:42;;;;;;;1.40;0.50;;;;;;;8.81;47.89;96980.23;106039;1278;136683;-76
2022/02/19 03:13:09;;;;;;;1.30;0.50;;;;;;;8.81;48.04;96974.40;106093;1277;24231;-75
2022/02/19 03:15:38;;;;;;;2.80;0.70;;;;;;;8.81;49.12;96982.23;105946;1277;136846;-75
2022/02/19 03:18:06;;;;;;;2.20;0.80;;;;;;;8.80;49.96;96984.02;105979;1277;22703;-75
2022/02/19 03:20:33;;;;;;;2.20;0.60;;;;;;;8.78;50.83;96993.46;105932;1277;137028;-75
2022/02/19 03:23:00;;;;;;;2.30;1.10;;;;;;;8.76;51.10;96993.77;106156;1277;22578;-76
2022/02/19 03:25:27;;;;;;;1.90;0.70;;;;;;;8.73;51.50;96998.39;105974;1277;24498;-76
2022/02/19 03:27:55;;;;;;;1.90;0.80;;;;;;;8.70;51.04;97016.45;106025;1277;137501;-76
2022/02/19 03:30:27;;;;;;;4.40;0.50;;;;;;;8.68;49.58;97015.54;105969;1277;22585;-76
2022/02/19 03:32:54;;;;;;;1.70;0.50;;;;;;;8.68;48.96;97029.33;105802;1277;137651;-76
2022/02/19 03:35:21;;;;;;;1.70;0.50;;;;;;;8.66;47.46;97033.93;106065;1277;25426;-76
2022/02/19 03:37:49;;;;;;;1.80;0.70;;;;;;;8.65;47.63;97033.77;106040;1277;24306;-76
2022/02/19 03:40:23;;;;;;;1.80;0.60;;;;;;;8.62;47.17;97038.37;106023;1277;136895;-76
2022/02/19 03:42:50;;;;;;;1.00;0.40;;;;;;;8.59;46.26;97043.14;105846;1279;22547;-76
2022/02/19 03:45:16;;;;;;;2.60;0.40;;;;;;;8.58;46.16;97052.30;105962;1277;136846;-76
2022/02/19 03:47:51;;;;;;;1.40;0.40;;;;;;;8.54;45.99;97046.31;106080;1276;22701;-76
2022/02/19 03:50:19;;;;;;;3.80;0.60;;;;;;;8.53;45.71;97037.31;105959;1276;24396;-75
2022/02/19 03:52:46;;;;;;;2.00;0.80;;;;;;;8.50;46.05;97038.61;106069;1277;136506;-75
2022/02/19 03:55:27;;;;;;;2.60;0.70;;;;;;;8.46;46.49;97040.11;106157;1277;23121;-75
2022/02/19 03:57:54;;;;;;;1.20;0.40;;;;;;;8.42;46.58;97046.16;106062;1277;137098;-75
2022/02/19 04:00:23;;;;;;;1.40;0.50;;;;;;;8.38;45.54;97056.70;105893;1275;24228;-75
2022/02/19 04:02:49;;;;;;;1.50;0.70;;;;;;;8.36;45.23;97069.02;106019;1277;137642;-76
2022/02/19 04:05:23;;;;;;;1.60;0.70;;;;;;;8.33;45.08;97076.93;106131;1277;24234;-75
2022/02/19 04:07:49;;;;;;;2.60;0.50;;;;;;;8.29;45.45;97076.90;106208;1277;23503;-75
2022/02/19 04:10:20;;;;;;;3.10;0.50;;;;;;;8.24;45.10;97074.50;105878;1277;136820;-75
2022/02/19 04:12:47;;;;;;;2.00;0.30;;;;;;;8.22;44.63;97086.26;106105;1277;22565;-75
2022/02/19 04:15:19;;;;;;;1.70;0.40;;;;;;;8.19;44.76;97071.92;105911;1277;136866;-75
2022/02/19 04:17:48;;;;;;;1.40;0.60;;;;;;;8.16;44.76;97067.90;105897;1277;25216;-75
2022/02/19 04:20:15;;;;;;;1.30;0.40;;;;;;;8.11;44.88;97069.34;106082;1277;24424;-75
2022/02/19 04:22:42;;;;;;;1.60;0.50;;;;;;;8.08;44.79;97069.92;106050;1277;136974;-75
2022/02/19 04:25:10;;;;;;;1.00;0.40;;;;;;;8.05;44.58;97062.58;106387;1277;24275;-75
2022/02/19 04:27:37;;;;;;;1.60;0.40;;;;;;;8.03;44.64;97078.30;105932;1277;137126;-75
2022/02/19 04:30:05;;;;;;;1.90;0.70;;;;;;;8.00;44.15;97083.48;106311;1277;22580;-75
2022/02/19 04:32:32;;;;;;;1.70;0.40;;;;;;;7.98;44.73;97083.31;105873;1277;137016;-75
2022/02/19 04:34:59;;;;;;;3.30;0.50;;;;;;;7.95;44.32;97087.35;106043;1277;22821;-75
2022/02/19 04:37:29;;;;;;;1.30;0.40;;;;;;;7.92;44.14;97080.08;105920;1277;23394;-76
2022/02/19 04:40:00;;;;;;;2.00;0.50;;;;;;;7.89;44.74;97091.77;105902;1277;137366;-75
2022/02/19 04:42:31;;;;;;;2.40;0.50;;;;;;;7.85;44.47;97094.50;106098;1277;22647;-75
2022/02/19 04:45:05;;;;;;;2.10;0.60;;;;;;;7.81;44.61;97098.32;106111;1277;137487;-75
2022/02/19 04:47:36;;;;;;;2.60;0.40;;;;;;;7.77;44.65;97097.22;105969;1277;25366;-76
2022/02/19 04:50:05;;;;;;;2.60;0.30;;;;;;;7.74;44.33;97097.19;106038;1277;23511;-75
2022/02/19 04:52:32;;;;;;;1.90;0.40;;;;;;;7.72;44.49;97107.25;106075;1277;137002;-75
2022/02/19 04:55:00;;;;;;;1.50;0.70;;;;;;;7.67;44.92;97106.09;106171;1277;24396;-75
2022/02/19 04:57:27;;;;;;;2.40;0.60;;;;;;;7.61;44.85;97111.57;106045;1277;137344;-75
2022/02/19 04:59:54;;;;;;;2.50;0.50;;;;;;;7.55;44.84;97113.63;106017;1277;25330;-75
2022/02/19 05:02:25;;;;;;;2.70;0.70;;;;;;;7.50;45.24;97119.60;105972;1277;137059;-75
2022/02/19 05:04:52;;;;;;;2.90;0.60;;;;;;;7.46;45.12;97130.82;106270;1277;25468;-75
2022/02/19 05:07:23;;;;;;;1.20;0.60;;;;;;;7.43;45.13;97132.11;106066;1277;22703;-75
2022/02/19 05:09:49;;;;;;;1.90;0.50;;;;;;;7.40;45.52;97125.53;105909;1277;137034;-75
2022/02/19 05:12:18;;;;;;;;;;;;;;;7.37;45.86;97126.27;105897;1276;25320;-75
2022/02/19 05:14:45;;;;;;;2.10;0.40;;;;;;;7.30;45.93;97132.70;105745;1279;123926;-75
2022/02/19 05:17:52;;;;;;;1.40;0.40;;;;;;;7.21;46.40;97142.03;106065;1278;24574;-75
2022/02/19 05:20:23;;;;;;;1.10;0.40;;;;;;;7.15;46.30;97135.80;106045;1278;24288;-76
2022/02/19 05:22:51;;;;;;;0.80;0.50;;;;;;;7.14;46.26;97146.58;105895;1276;136766;-75
2022/02/19 05:25:23;;;;;;;2.00;0.50;;;;;;;7.12;46.63;97152.71;106190;1274;23083;-75
2022/02/19 05:27:50;;;;;;;1.90;0.70;;;;;;;7.09;46.31;97161.35;106140;1277;137430;-75
2022/02/19 05:30:17;;;;;;;1.80;0.60;;;;;;;7.07;46.79;97157.21;106125;1277;22573;-75
2022/02/19 05:33:30;;;;;;;1.30;0.90;;;;;;;7.02;46.74;97162.36;105912;1277;136803;-76
2022/02/19 05:35:57;;;;;;;3.90;0.80;;;;;;;6.98;47.26;97157.89;105931;1277;22569;-76
2022/02/19 05:38:25;;;;;;;3.20;0.50;;;;;;;6.94;47.64;97161.68;106151;1277;22563;-75
2022/02/19 05:40:54;;;;;;;2.90;0.60;;;;;;;6.90;47.81;97163.52;106084;1277;136896;-76
2022/02/19 05:43:21;;;;;;;1.70;0.40;;;;;;;6.86;48.03;97168.64;106044;1277;25267;-75
2022/02/19 05:45:48;;;;;;;7.70;2.00;;;;;;;6.82;48.11;97171.19;105986;1277;137191;-75
2022/02/19 05:48:33;;;;;;;2.00;0.60;;;;;;;6.78;47.90;97168.05;106060;1277;22545;-75
2022/02/19 05:51:04;;;;;;;2.40;0.70;;;;;;;6.77;47.94;97167.16;105837;1277;137124;-75
2022/02/19 05:53:42;;;;;;;3.30;0.60;;;;;;;6.77;47.59;97168.99;105935;1277;23306;-75
2022/02/19 05:56:08;;;;;;;1.30;0.80;;;;;;;6.76;47.67;97166.17;105801;1277;22711;-75
2022/02/19 05:58:35;;;;;;;2.10;0.60;;;;;;;6.75;47.83;97171.95;105937;1277;137375;-75
2022/02/19 06:01:08;;;;;;;2.00;0.70;;;;;;;6.72;47.44;97173.22;105893;1277;22573;-75
2022/02/19 06:03:34;;;;;;;2.50;1.30;;;;;;;6.71;47.37;97177.26;105648;1280;137220;-75
2022/02/19 06:06:01;;;;;;;3.50;1.10;;;;;;;6.70;47.61;97172.05;105828;1279;22609;-75
2022/02/19 06:08:28;;;;;;;4.20;0.70;;;;;;;6.69;47.36;97177.95;106144;1277;22548;-75
2022/02/19 06:10:54;;;;;;;2.30;0.80;;;;;;;6.69;47.18;97186.16;105803;1278;136895;-75
2022/02/19 06:13:22;;;;;;;2.70;0.70;;;;;;;6.70;47.24;97188.82;105842;1277;24288;-75
2022/02/19 06:15:49;;;;;;;2.00;0.70;;;;;;;6.69;47.36;97197.27;106087;1277;137738;-75
2022/02/19 06:18:34;;;;;;;2.70;0.80;;;;;;;6.68;47.46;97200.94;106017;1277;25338;-75
2022/02/19 06:21:02;;;;;;;1.70;0.60;;;;;;;6.70;46.72;97202.89;105981;1277;138098;-75
2022/02/19 06:23:38;;;;;;;1.00;0.40;;;;;;;6.71;46.53;97206.27;106093;1277;22572;-75
2022/02/19 06:26:05;;;;;;;1.40;0.50;;;;;;;6.73;46.27;97212.84;106340;1277;22665;-75
2022/02/19 06:28:35;;;;;;;2.90;0.80;;;;;;;6.75;46.67;97224.39;105887;1277;137342;-78
2022/02/19 06:31:04;;;;;;;1.90;0.60;;;;;;;6.75;46.80;97229.70;106089;1277;24497;-78
2022/02/19 06:33:31;;;;;;;1.90;1.10;;;;;;;6.76;46.73;97223.75;106032;1277;136802;-75
2022/02/19 06:35:57;;;;;;;2.50;1.20;;;;;;;6.75;47.06;97233.42;105990;1277;22632;-75
2022/02/19 06:38:25;;;;;;;5.10;1.20;;;;;;;6.74;47.18;97234.44;105981;1277;24228;-75
2022/02/19 06:40:56;;;;;;;3.10;1.20;;;;;;;6.72;47.38;97237.13;105853;1277;136537;-75
2022/02/19 06:43:23;;;;;;;2.20;1.00;;;;;;;6.71;47.34;97241.77;105914;1277;22585;-75
2022/02/19 06:46:05;;;;;;;2.50;1.10;;;;;;;6.71;47.26;97244.35;105887;1278;136777;-75
2022/02/19 06:48:31;;;;;;;3.50;1.10;;;;;;;6.73;46.55;97252.27;105864;1277;22556;-75
2022/02/19 06:50:58;;;;;;;3.50;1.20;;;;;;;6.76;46.98;97241.77;105920;1277;137010;-75
2022/02/19 06:53:26;;;;;;;1.70;0.50;;;;;;;6.75;46.69;97248.14;106000;1277;24331;-77
2022/02/19 06:55:52;;;;;;;6.70;1.30;;;;;;;6.78;46.85;97243.41;106236;1277;24354;-76
2022/02/19 06:58:21;;;;;;;3.10;1.10;;;;;;;6.79;46.81;97240.63;106105;1277;137364;-77
2022/02/19 07:00:55;;;;;;;5.10;1.80;;;;;;;6.81;46.74;97251.03;106062;1277;24256;-75
2022/02/19 07:03:22;;;;;;;4.30;0.90;;;;;;;6.82;46.89;97258.48;105965;1277;137197;-75
2022/02/19 07:05:51;;;;;;;3.90;1.00;;;;;;;6.84;46.70;97258.73;106162;1277;23913;-76
2022/02/19 07:08:31;;;;;;;1.90;0.70;;;;;;;6.88;46.60;97268.05;105976;1277;24275;-76
2022/02/19 07:10:59;;;;;;;3.00;1.00;;;;;;;6.91;46.48;97263.66;105982;1277;137862;-76
2022/02/19 07:13:26;;;;;;;2.10;0.80;;;;;;;6.94;46.62;97272.38;106018;1276;25337;-76
2022/02/19 07:15:53;;;;;;;2.40;0.70;;;;;;;6.97;45.91;97277.89;106058;1277;136933;-75
2022/02/19 07:18:31;;;;;;;2.00;0.60;;;;;;;7.02;45.95;97278.92;105949;1277;24227;-76
2022/02/19 07:21:17;;;;;;;5.50;0.80;;;;;;;7.05;46.03;97282.58;106103;1277;137651;-76
2022/02/19 07:23:44;;;;;;;4.50;0.80;;;;;;;7.09;46.14;97291.61;105929;1277;25515;-76
2022/02/19 07:26:11;;;;;;;3.40;1.00;;;;;;;7.11;46.04;97293.37;106103;1277;22579;-76
2022/02/19 07:28:39;;;;;;;4.00;1.10;;;;;;;7.14;46.05;97297.42;106072;1277;136956;-76
2022/02/19 07:31:08;;;;;;;2.30;0.70;;;;;;;7.16;46.33;97304.77;106151;1277;22590;-75
2022/02/19 07:33:35;;;;;;;5.50;0.90;;;;;;;7.19;46.25;97304.58;106085;1277;136812;-76
2022/02/19 07:36:21;;;;;;;3.10;0.80;;;;;;;7.22;46.41;97317.51;106189;1277;25331;-76
2022/02/19 07:38:48;;;;;;;3.30;0.80;;;;;;;7.25;46.53;97318.02;105712;1277;136913;-76
2022/02/19 07:41:14;;;;;;;2.60;0.70;;;;;;;7.28;45.56;97319.70;105946;1277;22711;-76
2022/02/19 07:44:27;;;;;;;4.30;0.80;;;;;;;7.32;45.23;97331.11;105681;1277;25469;-76
2022/02/19 07:47:24;;;;;;;4.70;1.00;;;;;;;7.36;45.23;97329.32;105812;1277;22542;-76
2022/02/19 07:58:58;;;;;;;3.20;1.20;;;;;;;7.47;46.26;97337.20;105725;1277;136977;-75
2022/02/19 08:01:25;;;;;;;4.30;1.30;;;;;;;7.48;45.28;97339.42;105837;1277;24843;-76
2022/02/19 08:03:52;;;;;;;3.90;0.80;;;;;;;7.49;44.33;97338.96;105919;1277;136924;-76
2022/02/19 08:06:19;;;;;;;3.40;1.10;;;;;;;7.51;43.58;97340.98;105849;1277;22678;-76
2022/02/19 08:08:46;;;;;;;2.30;0.80;;;;;;;7.52;43.75;97337.86;105845;1277;22579;-76
2022/02/19 08:11:15;;;;;;;;;;;;;;;7.53;41.87;97359.27;105714;1277;137437;-76
2022/02/19 08:13:41;;;;;;;3.60;1.30;;;;;;;7.52;42.34;97360.11;106000;1277;24306;-76
2022/02/19 08:16:22;;;;;;;3.20;0.80;;;;;;;7.51;41.66;97365.30;105878;1277;137811;-76
2022/02/19 08:18:50;;;;;;;3.60;0.80;;;;;;;7.53;40.66;97366.42;105942;1277;25331;-76
2022/02/19 08:21:18;;;;;;;6.60;1.00;;;;;;;7.56;40.58;97378.98;106041;1277;136971;-77
2022/02/19 08:23:44;;;;;;;3.00;0.80;;;;;;;7.58;40.74;97375.25;105919;1277;22575;-74
2022/02/19 08:26:12;;;;;;;4.20;0.90;;;;;;;7.60;41.00;97386.11;105795;1277;25260;-77
2022/02/19 08:28:40;;;;;;;2.30;0.40;;;;;;;7.62;41.12;97394.91;105733;1277;136960;-77
2022/02/19 08:31:07;;;;;;;2.40;0.70;;;;;;;7.63;40.87;97397.52;105920;1277;25369;-74
2022/02/19 08:33:33;;;;;;;4.10;0.80;;;;;;;7.64;40.63;97396.17;105860;1277;136904;-74
2022/02/19 08:36:00;;;;;;;2.50;0.60;;;;;;;7.69;41.11;97406.38;105987;1277;22732;-74
2022/02/19 08:38:27;;;;;;;3.30;0.90;;;;;;;7.74;41.28;97408.73;105837;1277;22729;-74
2022/02/19 08:40:53;;;;;;;2.40;0.70;;;;;;;7.77;40.40;97407.73;105761;1277;137016;-75
2022/02/19 08:43:20;;;;;;;3.40;0.60;;;;;;;7.80;40.14;97404.17;105768;1277;22707;-74
2022/02/19 08:45:46;;;;;;;3.80;0.80;;;;;;;7.85;39.49;97413.02;105881;1277;136922;-74
2022/02/19 08:48:28;;;;;;;3.60;0.80;;;;;;;7.92;39.44;97415.05;105835;1278;24217;-75
2022/02/19 08:50:55;;;;;;;3.20;0.80;;;;;;;7.96;39.85;97416.77;105766;1279;22713;-75
2022/02/19 08:53:23;;;;;;;3.40;0.90;;;;;;;7.96;39.71;97417.17;105653;1276;136871;-74
2022/02/19 08:55:50;;;;;;;2.80;0.60;;;;;;;7.96;39.06;97420.48;105885;1276;23457;-74
2022/02/19 08:58:17;;;;;;;5.10;0.70;;;;;;;7.95;38.00;97430.10;105783;1277;137380;-74
2022/02/19 09:00:43;;;;;;;2.70;0.60;;;;;;;7.95;38.37;97432.13;105929;1277;22602;-74
2022/02/19 09:03:10;;;;;;;2.70;0.90;;;;;;;7.98;38.74;97437.09;105890;1277;137450;-74
2022/02/19 09:05:36;;;;;;;3.60;0.80;;;;;;;8.03;37.98;97436.70;105794;1277;24219;-74
2022/02/19 09:08:03;;;;;;;4.40;0.90;;;;;;;7.98;37.40;97434.21;105953;1277;25502;-76
2022/02/19 09:10:29;;;;;;;3.70;1.40;;;;;;;7.91;38.11;97434.95;105891;1277;136692;-74
2022/02/19 09:12:56;;;;;;;2.50;0.80;;;;;;;7.86;38.73;97448.86;105974;1277;24535;-74
2022/02/19 09:15:24;;;;;;;3.30;1.10;;;;;;;7.85;39.10;97450.15;105742;1277;137199;-74
2022/02/19 09:18:07;;;;;;;6.50;0.90;;;;;;;7.88;39.19;97458.65;106023;1277;24327;-74
2022/02/19 09:20:34;;;;;;;3.80;1.20;;;;;;;7.96;38.78;97462.44;105836;1277;22550;-74
2022/02/19 09:23:01;;;;;;;3.20;0.80;;;;;;;8.03;38.27;97465.56;105829;1277;136974;-74
2022/02/19 09:25:27;;;;;;;1.80;0.80;;;;;;;8.08;38.79;97467.52;105924;1277;23954;-76
2022/02/19 09:27:54;;;;;;;3.60;0.60;;;;;;;8.16;39.34;97465.98;105822;1274;137393;-74
2022/02/19 09:30:20;;;;;;;2.10;0.50;;;;;;;8.26;38.28;97472.06;105813;1277;25331;-75
2022/02/19 09:32:47;;;;;;;1.90;0.70;;;;;;;8.31;38.64;97481.11;105943;1277;22567;-76
2022/02/19 09:35:14;;;;;;;2.30;0.60;;;;;;;8.38;38.26;97478.60;105944;1277;136791;-74
2022/02/19 09:37:41;;;;;;;6.50;1.80;;;;;;;8.44;37.37;97502.45;105873;1277;25313;-74
2022/02/19 09:40:09;;;;;;;1.90;0.50;;;;;;;8.44;36.10;97489.31;105724;1278;137285;-74
2022/02/19 09:42:37;;;;;;;5.10;1.20;;;;;;;8.43;36.74;97498.26;105920;1276;24249;-74
2022/02/19 09:45:06;;;;;;;2.00;0.60;;;;;;;8.42;36.87;97513.69;105892;1276;136983;-74
2022/02/19 09:47:35;;;;;;;3.00;0.90;;;;;;;8.39;36.50;97524.23;105805;1276;276826;-74
2022/02/19 09:50:03;;;;;;;1.80;0.60;;;;;;;8.37;36.60;97525.19;105943;1277;30578;-74
2022/02/19 09:52:30;;;;;;;3.50;0.90;;;;;;;8.37;36.28;97538.65;105879;1277;137451;-74
2022/02/19 09:55:10;;;;;;;3.00;0.60;;;;;;;8.44;36.02;97547.10;105804;1277;22569;-74
2022/02/19 09:57:37;;;;;;;4.80;0.70;;;;;;;8.47;35.30;97544.31;105845;1277;137043;-74
2022/02/19 10:00:06;;;;;;;2.40;0.90;;;;;;;8.45;35.07;97565.40;105824;1279;23211;-74
2022/02/19 10:02:40;;;;;;;3.50;0.70;;;;;;;8.40;35.30;97560.33;105950;1277;22585;-75
2022/02/19 10:05:24;;;;;;;5.00;1.80;;;;;;;8.36;34.70;97544.86;105834;1277;136713;-75
2022/02/19 10:08:07;;;;;;;5.60;0.90;;;;;;;8.38;35.18;97560.73;106050;1277;22568;-76
2022/02/19 10:10:37;;;;;;;2.80;0.90;;;;;;;8.43;34.82;97564.07;106020;1277;137041;-76
2022/02/19 10:13:05;;;;;;;5.30;1.00;;;;;;;8.49;34.34;97564.32;106108;1277;24381;-76
2022/02/19 10:15:52;;;;;;;7.30;0.90;;;;;;;8.62;34.27;97571.46;106131;1277;136871;-78
2022/02/19 10:18:31;;;;;;;1.10;0.60;;;;;;;8.74;33.89;97563.88;106014;1277;22670;-75
2022/02/19 10:21:18;;;;;;;3.00;0.60;;;;;;;8.86;34.37;97567.83;106043;1277;24265;-76
2022/02/19 10:23:54;;;;;;;4.40;0.90;;;;;;;8.96;34.66;97577.14;106027;1277;137138;-74
2022/02/19 10:26:56;;;;;;;4.20;1.20;;;;;;;8.93;34.32;97582.44;106560;1276;24083;-74
2022/02/19 10:29:23;;;;;;;8.00;2.10;;;;;;;8.91;33.87;97586.77;107390;1277;137191;-75
2022/02/19 10:31:56;;;;;;;6.20;1.40;;;;;;;8.93;34.47;97602.20;106950;1277;22554;-75
2022/02/19 10:34:31;;;;;;;6.10;1.90;;;;;;;8.91;34.84;97601.21;106790;1277;137514;-73
2022/02/19 10:37:28;;;;;;;4.50;1.20;;;;;;;8.92;34.94;97607.41;106501;1277;26500;-75
2022/02/19 10:40:27;;;;;;;2.40;0.70;;;;;;;8.90;35.16;97610.42;107219;1277;136950;-74
2022/02/19 10:42:57;;;;;;;2.90;1.10;;;;;;;8.80;34.68;97609.39;106821;1277;22585;-74
2022/02/19 10:45:25;;;;;;;4.60;1.70;;;;;;;8.73;35.32;97615.66;106150;1277;137270;-74
2022/02/19 10:48:09;;;;;;;2.90;0.80;;;;;;;8.71;35.43;97619.83;106413;1277;25298;-73
2022/02/19 10:50:51;;;;;;;3.40;1.10;;;;;;;8.67;35.10;97627.86;106393;1277;22557;-74
2022/02/19 10:53:23;;;;;;;3.30;1.20;;;;;;;8.76;36.19;97625.59;106229;1277;136944;-74
2022/02/19 10:55:50;;;;;;;4.30;1.10;;;;;;;8.88;36.52;97623.27;106399;1278;25517;-74
2022/02/19 10:58:17;;;;;;;5.10;1.00;;;;;;;8.99;36.10;97625.13;106529;1277;136875;-74
2022/02/19 11:00:47;;;;;;;5.40;1.00;;;;;;;9.08;35.98;97623.48;106108;1277;22556;-74
2022/02/19 11:03:14;;;;;;;2.10;0.80;;;;;;;9.17;35.02;97644.39;107019;1277;25430;-74
2022/02/19 11:05:41;;;;;;;3.50;0.80;;;;;;;9.21;34.52;97642.09;106460;1277;138108;-74
2022/02/19 11:08:08;;;;;;;3.70;1.20;;;;;;;9.21;35.17;97646.17;106310;1277;25316;-74
2022/02/19 11:10:37;;;;;;;2.20;0.90;;;;;;;9.19;35.08;97648.54;106343;1277;137520;-75
2022/02/19 11:13:18;;;;;;;2.90;0.80;;;;;;;9.19;36.05;97662.00;106153;1277;22550;-74
2022/02/19 11:15:46;;;;;;;3.70;1.00;;;;;;;9.14;36.11;97667.88;106485;1276;138151;-74
2022/02/19 11:18:14;;;;;;;3.80;0.70;;;;;;;9.11;35.70;97665.98;106645;1277;22615;-74
2022/02/19 11:20:41;;;;;;;5.40;1.30;;;;;;;9.07;35.90;97679.03;106907;1277;22391;-74
2022/02/19 11:23:11;;;;;;;1.70;0.70;;;;;;;9.04;35.92;97678.84;106281;1277;137054;-75
2022/02/19 11:25:39;;;;;;;4.30;0.70;;;;;;;8.96;35.34;97683.69;106421;1277;23465;-74
2022/02/19 11:28:10;;;;;;;2.40;0.80;;;;;;;8.91;35.89;97691.61;106114;1277;137881;-74
2022/02/19 11:31:05;;;;;;;6.20;1.00;;;;;;;8.84;35.28;97688.17;106605;1277;24224;-74
2022/02/19 11:37:16;;;;;;;2.70;0.60;;;;;;;8.71;35.07;97687.14;103398;1313;560340;-74
2022/02/19 11:40:13;;;;;;;5.50;1.00;;;;;;;8.61;35.32;97698.47;105848;1280;136652;-74
2022/02/19 11:42:44;;;;;;;3.40;1.20;;;;;;;8.67;36.22;97709.24;105799;1284;24302;-74
2022/02/19 11:45:30;;;;;;;2.50;0.70;;;;;;;8.72;35.75;97701.21;105698;1283;22562;-74
2022/02/19 11:48:06;;;;;;;1.40;0.60;;;;;;;8.77;36.25;97710.61;105484;1283;136044;-74
2022/02/19 11:50:37;;;;;;;1.50;0.60;;;;;;;8.73;36.01;97712.15;105215;1283;214956;-77
2022/02/19 11:53:13;;;;;;;4.30;0.70;;;;;;;8.73;36.63;97722.40;105721;1281;136675;-74
2022/02/19 11:55:40;;;;;;;2.20;0.70;;;;;;;8.69;36.20;97720.78;105702;1283;22557;-75
2022/02/19 11:58:13;;;;;;;4.60;1.00;;;;;;;8.68;37.42;97731.89;105774;1283;136419;-75